This is the latest recevied weather packets stored in our database for station/object N5GAH-13. If no packets are shown the sender has not sent any weather packets the latest 1 day(s).
| Time | Temp. | Humidity | Pressure | Rain* | Wind** | Luminosity | Snow |
|---|---|---|---|---|---|---|---|
| 1836274230 | 25.56° C | 49% | 1022.9 hPa | 0 mm | 0.89 m/s, 147° | - | - |
| 1778016210 | 26.11° C | 26% | 1013.8 hPa | 0 mm | 6.26 m/s, 249° | - | - |
| 1778014410 | 25.56° C | 28% | 1013.9 hPa | 0 mm | 4.92 m/s, 260° | - | - |
| 1778012610 | 25.56° C | 29% | 1014.3 hPa | 0 mm | 4.47 m/s, 254° | - | - |
| 1778010810 | 26.11° C | 29% | 1014.3 hPa | 0 mm | 5.36 m/s, 252° | - | - |
| 1778009010 | 26.67° C | 27% | 1014.1 hPa | 0 mm | 4.47 m/s, 238° | - | - |
| 1778005410 | 26.11° C | 29% | 1014.6 hPa | 0 mm | 3.13 m/s, 241° | - | - |
| 1778003610 | 26.11° C | 30% | 1014.7 hPa | 0 mm | 1.79 m/s, 270° | - | - |
| 1778001810 | 25.56° C | 31% | 1014.8 hPa | 0 mm | 2.24 m/s, 267° | - | - |
| 1778000010 | 24.44° C | 31% | 1014.9 hPa | 0 mm | 2.24 m/s, 291° | - | - |
| 1777998210 | 24.44° C | 33% | 1014.6 hPa | 0 mm | 2.24 m/s, 287° | - | - |
| 1777996410 | 23.33° C | 33% | 1014.6 hPa | 0 mm | 2.24 m/s, 280° | - | - |
| 1777994609 | 22.78° C | 35% | 1014.6 hPa | 0 mm | 2.24 m/s, 265° | - | - |
| 1777992809 | 22.22° C | 35% | 1014.4 hPa | 0 mm | 1.34 m/s, 277° | - | - |
| 1777991010 | 21.11° C | 37% | 1014.3 hPa | 0 mm | 1.79 m/s, 273° | - | - |
| 1777989257 | 20° C | 40% | 1013.6 hPa | 0 mm | 1.34 m/s, 264° | - | - |
| 1777989210 | 20° C | 40% | 1013.6 hPa | 0 mm | 1.34 m/s, 264° | - | - |
| 1777987409 | 19.44° C | 41% | 1013.4 hPa | 0 mm | 1.79 m/s, 288° | - | - |
| 1777985610 | 18.89° C | 42% | 1013.4 hPa | 0 mm | 1.34 m/s, 285° | - | - |
| 1777983810 | 18.33° C | 42% | 1012.6 hPa | 0 mm | 1.34 m/s, 258° | - | - |
| 1777982010 | 18.89° C | 41% | 1012.4 hPa | 0 mm | 1.34 m/s, 239° | - | - |
| 1777980210 | 19.44° C | 40% | 1012.2 hPa | 0 mm | 1.79 m/s, 233° | - | - |
| 1777978409 | 20° C | 38% | 1012.1 hPa | 0 mm | 2.24 m/s, 236° | - | - |
| 1777976609 | 19.44° C | 40% | 1011.8 hPa | 0 mm | 2.68 m/s, 256° | - | - |
| 1777973009 | 18.89° C | 44% | 1012 hPa | 0 mm | 2.24 m/s, 230° | - | - |
* Rain latest hour (hover to see other rain measurements)
** Current wind speed in m/s (hover to see current wind gust speed)